Time;durP1;ratioP1;P1;durP2;ratioP2;P2;SDS_P1;SDS_P2;PMS_P1;PMS_P2;Temp;Humidity;BMP_temperature;BMP_pressure;BME280_temperature;BME280_humidity;BME280_pressure;Samples;Min_cycle;Max_cycle;Signal;HPM_P1;HPM_P2
2023/07/25 00:02:04;;;;;;;;;;;;;;;21.61;57.94;100278.26;107617;1251;107726;-68
2023/07/25 00:04:32;;;;;;;;;;;;;;;21.57;58.01;100281.11;107567;1251;98657;-68
2023/07/25 00:07:01;;;;;;;;;;;;;;;21.54;58.13;100280.12;107612;1251;97707;-69
2023/07/25 00:09:31;;;;;;;;;;;;;;;21.51;58.59;100281.49;107631;1254;111203;-69
2023/07/25 00:11:59;;;;;;;;;;;;;;;21.45;58.57;100283.98;107578;1251;108783;-69
2023/07/25 00:14:27;;;;;;;;;;;;;;;21.42;58.93;100282.57;107625;1256;108092;-68
2023/07/25 00:16:56;;;;;;;;;;;;;;;21.37;59.87;100277.59;107600;1251;97803;-64
2023/07/25 00:19:24;;;;;;;;;;;;;;;21.35;59.36;100264.84;107530;1254;97829;-69
2023/07/25 00:21:52;;;;;;;;;;;;;;;21.33;59.33;100259.77;107670;1254;111405;-70
2023/07/25 00:24:21;;;;;;;;;;;;;;;21.30;59.24;100259.10;107629;1255;109362;-70
2023/07/25 00:26:49;;;;;;;;;;;;;;;21.28;59.16;100253.69;107629;1251;108163;-68
2023/07/25 00:29:17;;;;;;;;;;;;;;;21.27;59.49;100253.31;107542;1254;97806;-69
2023/07/25 00:31:48;;;;;;;;;;;;;;;21.27;59.21;100251.17;107664;1251;97722;-69
2023/07/25 00:34:17;;;;;;;;;;;;;;;21.25;59.38;100244.44;107620;1257;111252;-70
2023/07/25 00:36:45;;;;;;;;;;;;;;;21.25;59.74;100244.11;107527;1254;109658;-70
2023/07/25 00:39:14;;;;;;;;;;;;;;;21.23;59.86;100253.64;107580;1254;108145;-70
2023/07/25 00:41:42;;;;;;;;;;;;;;;21.23;59.64;100255.11;107578;1254;97831;-69
2023/07/25 00:44:10;;;;;;;;;;;;;;;21.23;59.75;100253.17;107504;1252;97853;-70
2023/07/25 00:46:41;;;;;;;;;;;;;;;21.23;59.72;100258.48;107573;1257;111820;-68
2023/07/25 00:49:10;;;;;;;;;;;;;;;21.21;60.22;100258.85;107605;1251;109764;-70
2023/07/25 00:51:39;;;;;;;;;;;;;;;21.19;60.12;100267.77;107539;1251;109453;-68
2023/07/25 00:54:07;;;;;;;;;;;;;;;21.16;60.04;100275.61;107546;1251;97956;-69
2023/07/25 00:56:35;;;;;;;;;;;;;;;21.11;59.63;100280.59;107622;1257;97773;-68
2023/07/25 00:59:04;;;;;;;;;;;;;;;21.06;59.71;100287.65;107623;1251;111187;-67
2023/07/25 01:01:32;;;;;;;;;;;;;;;21.03;59.20;100288.77;107517;1251;111000;-70
2023/07/25 01:04:01;;;;;;;;;;;;;;;21.00;59.41;100290.27;107598;1253;107866;-68
2023/07/25 01:06:29;;;;;;;;;;;;;;;20.99;59.63;100290.70;107624;1256;97908;-68
2023/07/25 01:08:57;;;;;;;;;;;;;;;20.95;60.29;100290.84;107564;1254;97893;-68
2023/07/25 01:11:25;;;;;;;;;;;;;;;20.90;60.30;100287.45;107551;1254;111330;-69
2023/07/25 01:13:54;;;;;;;;;;;;;;;20.87;59.69;100277.17;107616;1253;108489;-70
2023/07/25 01:16:23;;;;;;;;;;;;;;;20.83;60.12;100269.86;107642;1254;108496;-70
2023/07/25 01:18:53;;;;;;;;;;;;;;;20.79;59.95;100268.02;107643;1251;97874;-72
2023/07/25 01:21:21;;;;;;;;;;;;;;;20.79;60.57;100269.58;107689;1255;98017;-70
2023/07/25 01:23:50;;;;;;;;;;;;;;;20.77;60.19;100266.72;107579;1251;111624;-69
2023/07/25 01:26:18;;;;;;;;;;;;;;;20.75;59.96;100261.15;107610;1251;108904;-69
2023/07/25 01:28:46;;;;;;;;;;;;;;;20.71;62.08;100256.27;107606;1251;108280;-70
2023/07/25 01:31:15;;;;;;;;;;;;;;;20.62;61.48;100260.66;107609;1251;97768;-70
2023/07/25 01:33:43;;;;;;;;;;;;;;;20.57;61.15;100258.23;107548;1253;97835;-69
2023/07/25 01:36:12;;;;;;;;;;;;;;;20.52;61.04;100253.59;107654;1251;111771;-68
2023/07/25 01:38:41;;;;;;;;;;;;;;;20.47;61.28;100253.51;107481;1251;109694;-70
2023/07/25 01:41:10;;;;;;;;;;;;;;;20.44;61.05;100253.27;107484;1251;108581;-73
2023/07/25 01:43:38;;;;;;;;;;;;;;;20.42;61.41;100252.43;107500;1254;97828;-68
2023/07/25 01:46:06;;;;;;;;;;;;;;;20.42;61.84;100254.08;107622;1256;98260;-69
2023/07/25 01:48:35;;;;;;;;;;;;;;;20.40;61.91;100252.86;107701;1251;110928;-69
2023/07/25 01:51:03;;;;;;;;;;;;;;;20.39;61.72;100253.52;107488;1251;109605;-69
2023/07/25 01:53:32;;;;;;;;;;;;;;;20.40;62.00;100253.30;107463;1254;108300;-69
2023/07/25 01:56:00;;;;;;;;;;;;;;;20.39;61.37;100251.42;107549;1251;97899;-68
2023/07/25 01:58:28;;;;;;;;;;;;;;;20.37;61.47;100245.80;107494;1256;97729;-68
2023/07/25 02:00:59;;;;;;;;;;;;;;;20.37;61.70;100254.36;107458;1257;113400;-67
2023/07/25 02:03:30;;;;;;;;;;;;;;;20.38;61.86;100255.44;107450;1254;109259;-68
2023/07/25 02:05:58;;;;;;;;;;;;;;;20.38;62.05;100251.61;107571;1256;108913;-68
2023/07/25 02:08:26;;;;;;;;;;;;;;;20.38;62.08;100253.33;107637;1251;97835;-69
2023/07/25 02:10:55;;;;;;;;;;;;;;;20.38;62.17;100254.09;107531;1251;97727;-69
2023/07/25 02:13:23;;;;;;;;;;;;;;;20.37;61.98;100260.23;107615;1251;111565;-74
2023/07/25 02:15:51;;;;;;;;;;;;;;;20.36;61.98;100262.20;107696;1254;109839;-69
2023/07/25 02:18:19;;;;;;;;;;;;;;;20.32;62.02;100258.89;107613;1253;108308;-69
2023/07/25 02:20:47;;;;;;;;;;;;;;;20.28;61.51;100256.76;107610;1254;97829;-69
2023/07/25 02:23:16;;;;;;;;;;;;;;;20.24;61.85;100257.48;107603;1256;97911;-69
2023/07/25 02:25:46;;;;;;;;;;;;;;;20.19;62.02;100257.23;107587;1254;111316;-70
2023/07/25 02:28:14;;;;;;;;;;;;;;;20.13;62.30;100256.86;107589;1254;109259;-72
2023/07/25 02:30:42;;;;;;;;;;;;;;;20.07;62.10;100243.39;107571;1254;107522;-74
2023/07/25 02:33:10;;;;;;;;;;;;;;;20.04;62.19;100242.01;107588;1254;97842;-69
2023/07/25 02:35:39;;;;;;;;;;;;;;;20.02;62.20;100238.60;107635;1254;98290;-69
2023/07/25 02:38:08;;;;;;;;;;;;;;;20.02;62.22;100236.50;107520;1254;111909;-68
2023/07/25 02:40:36;;;;;;;;;;;;;;;20.00;62.58;100231.24;107566;1252;109648;-71
2023/07/25 02:43:06;;;;;;;;;;;;;;;19.99;62.35;100224.83;107600;1254;108140;-69
2023/07/25 02:45:34;;;;;;;;;;;;;;;19.99;62.47;100222.27;107524;1251;97694;-70
2023/07/25 02:48:03;;;;;;;;;;;;;;;19.99;62.17;100220.46;107492;1251;97831;-69
2023/07/25 02:50:31;;;;;;;;;;;;;;;19.99;62.07;100211.77;107485;1251;111957;-69
2023/07/25 02:53:00;;;;;;;;;;;;;;;19.97;62.38;100206.34;107505;1251;109467;-69
2023/07/25 02:55:29;;;;;;;;;;;;;;;19.96;62.35;100211.64;107611;1251;108583;-72
2023/07/25 02:57:57;;;;;;;;;;;;;;;19.95;62.25;100213.32;107615;1253;97914;-70
2023/07/25 03:00:25;;;;;;;;;;;;;;;19.95;62.25;100221.55;107623;1251;97723;-69
2023/07/25 03:02:53;;;;;;;;;;;;;;;19.96;62.48;100220.71;107610;1253;111627;-69
2023/07/25 03:05:22;;;;;;;;;;;;;;;19.95;62.39;100211.51;107597;1251;110076;-69
2023/07/25 03:07:50;;;;;;;;;;;;;;;19.95;62.43;100205.13;107465;1251;107840;-71
2023/07/25 03:10:18;;;;;;;;;;;;;;;19.96;62.44;100199.38;107472;1251;97818;-71
2023/07/25 03:12:46;;;;;;;;;;;;;;;19.98;62.91;100197.45;107489;1251;97736;-70
2023/07/25 03:15:14;;;;;;;;;;;;;;;20.00;62.74;100197.73;107625;1254;111859;-68
2023/07/25 03:17:43;;;;;;;;;;;;;;;20.03;62.46;100199.37;107587;1256;109799;-69
2023/07/25 03:20:26;;;;;;;;;;;;;;;20.08;62.15;100207.59;107573;1251;107398;-72
2023/07/25 03:23:21;;;;;;;;;;;;;;;20.13;62.36;100211.48;107417;1251;97803;-72
2023/07/25 03:26:06;;;;;;;;;;;;;;;20.20;62.15;100208.70;107493;1251;97812;-69
2023/07/25 03:28:34;;;;;;;;;;;;;;;20.22;62.45;100209.86;107501;1250;111885;-69
2023/07/25 03:31:04;;;;;;;;;;;;;;;20.24;62.42;100209.08;107517;1251;109032;-68
2023/07/25 03:33:32;;;;;;;;;;;;;;;20.26;62.11;100206.73;107521;1251;107476;-69
2023/07/25 03:36:00;;;;;;;;;;;;;;;20.27;62.20;100216.91;107647;1251;97809;-68
2023/07/25 03:38:29;;;;;;;;;;;;;;;20.30;62.52;100234.06;107544;1251;97841;-70
2023/07/25 03:40:57;;;;;;;;;;;;;;;20.34;62.69;100244.30;107624;1251;111870;-70
2023/07/25 03:43:26;;;;;;;;;;;;;;;20.39;62.65;100244.75;107741;1255;109838;-70
2023/07/25 03:45:54;;;;;;;;;;;;;;;20.44;62.38;100236.49;107561;1251;107818;-69
2023/07/25 03:48:39;;;;;;;;;;;;;;;20.50;62.39;100229.54;107631;1251;97911;-68
2023/07/25 03:51:22;;;;;;;;;;;;;;;20.55;62.26;100238.39;107682;1251;97736;-70
2023/07/25 03:54:06;;;;;;;;;;;;;;;20.60;62.39;100242.02;107566;1254;111745;-71
2023/07/25 03:56:39;;;;;;;;;;;;;;;20.66;62.41;100236.92;107681;1254;109410;-69
2023/07/25 03:59:07;;;;;;;;;;;;;;;20.71;62.43;100226.19;107624;1254;107961;-72
2023/07/25 04:01:35;;;;;;;;;;;;;;;20.75;62.54;100208.33;107645;1254;97799;-70
2023/07/25 04:04:04;;;;;;;;;;;;;;;20.80;62.33;100197.80;107602;1251;97909;-68
2023/07/25 04:06:32;;;;;;;;;;;;;;;20.85;62.67;100200.63;107589;1251;112141;-70
2023/07/25 04:09:00;;;;;;;;;;;;;;;20.89;62.74;100217.60;107628;1256;109662;-68
2023/07/25 04:11:28;;;;;;;;;;;;;;;20.95;62.59;100218.45;107453;1250;108510;-67
2023/07/25 04:13:57;;;;;;;;;;;;;;;21.01;62.38;100210.46;107632;1251;97682;-69
2023/07/25 04:16:26;;;;;;;;;;;;;;;21.07;62.39;100204.16;107576;1251;97892;-68
2023/07/25 04:18:54;;;;;;;;;;;;;;;21.13;62.50;100205.90;107514;1251;111033;-66
2023/07/25 04:21:22;;;;;;;;;;;;;;;21.18;62.43;100203.67;107675;1254;110315;-68
2023/07/25 04:23:50;;;;;;;;;;;;;;;21.24;62.16;100207.70;107612;1254;107463;-70
2023/07/25 04:26:18;;;;;;;;;;;;;;;21.32;62.41;100215.23;107502;1250;97845;-69
2023/07/25 04:28:48;;;;;;;;;;;;;;;21.39;62.31;100221.46;107521;1251;97812;-71
2023/07/25 04:31:16;;;;;;;;;;;;;;;21.45;62.29;100218.14;107599;1253;110902;-68
2023/07/25 04:33:44;;;;;;;;;;;;;;;21.51;62.42;100219.80;107596;1253;109539;-71
2023/07/25 04:36:13;;;;;;;;;;;;;;;21.56;62.83;100219.44;107612;1254;108882;-74
2023/07/25 04:38:41;;;;;;;;;;;;;;;21.60;62.55;100226.05;107511;1251;97800;-73
2023/07/25 04:41:10;;;;;;;;;;;;;;;21.63;63.20;100237.39;107627;1253;97727;-71
2023/07/25 04:43:38;;;;;;;;;;;;;;;21.66;62.84;100243.48;107525;1257;111942;-70
2023/07/25 04:46:06;;;;;;;;;;;;;;;21.69;62.94;100241.09;107597;1251;109323;-69
2023/07/25 04:48:35;;;;;;;;;;;;;;;21.76;62.58;100235.11;107528;1252;106779;-71
2023/07/25 04:51:05;;;;;;;;;;;;;;;21.83;62.51;100227.84;107587;1254;97819;-69
2023/07/25 04:53:33;;;;;;;;;;;;;;;21.88;62.51;100231.95;107648;1252;97658;-70
2023/07/25 04:56:02;;;;;;;;;;;;;;;21.94;62.65;100233.60;107610;1251;112224;-68
2023/07/25 04:58:30;;;;;;;;;;;;;;;22.00;62.39;100231.52;107673;1256;109410;-70
2023/07/25 05:00:58;;;;;;;;;;;;;;;22.07;61.90;100227.11;107507;1251;107797;-70
2023/07/25 05:03:26;;;;;;;;;;;;;;;22.14;62.00;100219.95;107623;1251;97969;-70
2023/07/25 05:05:56;;;;;;;;;;;;;;;22.23;62.02;100213.25;107671;1253;97860;-69
2023/07/25 05:08:24;;;;;;;;;;;;;;;22.32;61.88;100211.92;107737;1253;111125;-71
2023/07/25 05:10:52;;;;;;;;;;;;;;;22.38;61.91;100198.76;107614;1251;109206;-71
2023/07/25 05:13:21;;;;;;;;;;;;;;;22.43;61.65;100182.16;107520;1251;107989;-71
2023/07/25 05:15:49;;;;;;;;;;;;;;;22.47;61.50;100171.19;107678;1251;97863;-69
2023/07/25 05:18:17;;;;;;;;;;;;;;;22.50;61.58;100169.77;107511;1251;97847;-70
2023/07/25 05:20:45;;;;;;;;;;;;;;;22.55;61.39;100164.51;107590;1256;111179;-69
2023/07/25 05:23:13;;;;;;;;;;;;;;;22.59;61.29;100160.84;107627;1251;108860;-69
2023/07/25 05:25:42;;;;;;;;;;;;;;;22.64;61.23;100164.44;107489;1251;108277;-70
2023/07/25 05:28:11;;;;;;;;;;;;;;;22.69;61.55;100175.30;107549;1251;97804;-69
2023/07/25 05:30:39;;;;;;;;;;;;;;;22.72;61.52;100176.09;107581;1251;97720;-70
2023/07/25 05:33:07;;;;;;;;;;;;;;;22.76;61.42;100166.19;107564;1250;111604;-71
2023/07/25 05:35:35;;;;;;;;;;;;;;;22.80;61.47;100147.05;107586;1251;110757;-69
2023/07/25 05:38:07;;;;;;;;;;;;;;;22.84;61.65;100142.22;107654;1253;108132;-67
2023/07/25 05:40:36;;;;;;;;;;;;;;;22.88;61.39;100140.02;107623;1251;97857;-75
2023/07/25 05:43:11;;;;;;;;;;;;;;;22.92;61.72;100142.75;107509;1251;97803;-69
2023/07/25 05:45:39;;;;;;;;;;;;;;;22.97;61.22;100150.69;107554;1250;111498;-68
2023/07/25 05:48:08;;;;;;;;;;;;;;;23.04;61.30;100148.65;107568;1251;109549;-67
2023/07/25 05:50:36;;;;;;;;;;;;;;;23.08;61.30;100148.79;107494;1251;108418;-70
2023/07/25 05:53:04;;;;;;;;;;;;;;;23.16;61.24;100147.38;107512;1250;97973;-68
2023/07/25 05:55:33;;;;;;;;;;;;;;;23.22;61.00;100153.42;107593;1254;97787;-70
2023/07/25 05:58:01;;;;;;;;;;;;;;;23.29;61.20;100152.34;107480;1250;110512;-68
2023/07/25 06:00:29;;;;;;;;;;;;;;;23.38;60.76;100157.23;107636;1251;109041;-68
2023/07/25 06:02:57;;;;;;;;;;;;;;;23.49;60.52;100162.11;107522;1251;108108;-69
2023/07/25 06:05:25;;;;;;;;;;;;;;;23.62;60.05;100170.83;107525;1254;97740;-68
2023/07/25 06:07:54;;;;;;;;;;;;;;;23.75;60.00;100166.69;107670;1252;97886;-68
2023/07/25 06:10:24;;;;;;;;;;;;;;;23.88;59.48;100163.09;107633;1251;111095;-72
2023/07/25 06:12:53;;;;;;;;;;;;;;;24.00;58.92;100161.57;107686;1254;109704;-68
2023/07/25 06:15:21;;;;;;;;;;;;;;;24.12;58.66;100150.78;107655;1250;108724;-69
2023/07/25 06:17:49;;;;;;;;;;;;;;;24.25;58.23;100149.30;107536;1251;97883;-69
2023/07/25 06:20:17;;;;;;;;;;;;;;;24.39;57.84;100150.36;107650;1254;97758;-69
2023/07/25 06:22:45;;;;;;;;;;;;;;;24.51;56.92;100148.67;107677;1253;112050;-70
2023/07/25 06:25:15;;;;;;;;;;;;;;;24.66;56.75;100144.37;107651;1253;109858;-70
2023/07/25 06:27:43;;;;;;;;;;;;;;;24.83;56.21;100126.38;107638;1254;108733;-71
2023/07/25 06:30:11;;;;;;;;;;;;;;;24.97;55.13;100129.70;107643;1251;97851;-70
2023/07/25 06:32:39;;;;;;;;;;;;;;;25.15;52.35;100146.15;107700;1252;97806;-71
2023/07/25 06:35:08;;;;;;;;;;;;;;;25.42;51.83;100160.48;107648;1253;111151;-68
2023/07/25 06:37:37;;;;;;;;;;;;;;;25.68;51.01;100166.64;107704;1254;109304;-67
2023/07/25 06:40:06;;;;;;;;;;;;;;;25.93;50.33;100165.52;107688;1251;107814;-67
2023/07/25 06:42:34;;;;;;;;;;;;;;;26.17;49.36;100162.48;107696;1252;98050;-67
2023/07/25 06:45:04;;;;;;;;;;;;;;;26.48;48.47;100167.98;107653;1253;97694;-68
2023/07/25 06:47:32;;;;;;;;;;;;;;;26.83;46.68;100175.84;107684;1251;112016;-67
2023/07/25 06:50:00;;;;;;;;;;;;;;;27.17;44.66;100181.06;107569;1251;109710;-68
2023/07/25 06:52:29;;;;;;;;;;;;;;;27.48;44.53;100177.30;107570;1251;107498;-68
2023/07/25 06:54:57;;;;;;;;;;;;;;;27.69;43.46;100186.04;107524;1251;97830;-68
2023/07/25 06:57:28;;;;;;;;;;;;;;;27.87;43.54;100188.56;107674;1251;97931;-72
2023/07/25 07:00:00;;;;;;;;;;;;;;;28.02;42.87;100197.44;107653;1251;111559;-71
2023/07/25 07:02:32;;;;;;;;;;;;;;;28.15;42.60;100205.11;107576;1251;110119;-68
2023/07/25 07:05:01;;;;;;;;;;;;;;;28.33;42.69;100206.55;107554;1251;108555;-67
2023/07/25 07:07:46;;;;;;;;;;;;;;;28.44;42.25;100213.12;107600;1251;97847;-67
2023/07/25 07:10:14;;;;;;;;;;;;;;;28.58;42.39;100218.27;107607;1253;97931;-68
2023/07/25 07:12:47;;;;;;;;;;;;;;;28.70;41.49;100231.45;107556;1251;111397;-70
2023/07/25 07:15:17;;;;;;;;;;;;;;;28.80;41.59;100229.89;107608;1251;109402;-69
2023/07/25 07:17:45;;;;;;;;;;;;;;;28.87;41.03;100220.84;107568;1252;108115;-67
2023/07/25 07:20:13;;;;;;;;;;;;;;;29.00;40.99;100214.29;107512;1251;97918;-67
2023/07/25 07:22:41;;;;;;;;;;;;;;;29.05;41.01;100211.70;107651;1253;97778;-67
2023/07/25 07:25:09;;;;;;;;;;;;;;;29.08;40.71;100204.05;107622;1251;110920;-69
2023/07/25 07:27:37;;;;;;;;;;;;;;;29.07;40.36;100196.09;107688;1254;109752;-69
2023/07/25 07:30:06;;;;;;;;;;;;;;;29.00;40.82;100189.42;107494;1251;107750;-67
2023/07/25 07:32:34;;;;;;;;;;;;;;;29.03;40.91;100177.09;107682;1251;97897;-68
2023/07/25 07:35:02;;;;;;;;;;;;;;;29.12;40.95;100166.45;107560;1254;97850;-69
2023/07/25 07:37:31;;;;;;;;;;;;;;;29.17;41.03;100151.90;107592;1251;111493;-68
2023/07/25 07:40:03;;;;;;;;;;;;;;;29.19;40.99;100141.26;107522;1251;109574;-68
2023/07/25 07:42:31;;;;;;;;;;;;;;;29.28;40.33;100122.33;107572;1250;108551;-67
2023/07/25 07:44:59;;;;;;;;;;;;;;;29.37;39.75;100091.86;107566;1250;97913;-68
2023/07/25 07:47:28;;;;;;;;;;;;;;;29.40;39.84;100060.51;107675;1250;97822;-68
2023/07/25 07:49:56;;;;;;;;;;;;;;;29.43;40.25;100028.37;107589;1251;112110;-68
2023/07/25 07:52:26;;;;;;;;;;;;;;;29.47;40.48;100023.98;107627;1254;109568;-67
2023/07/25 07:55:10;;;;;;;;;;;;;;;29.52;40.68;100013.44;107555;1250;108834;-70
2023/07/25 07:57:40;;;;;;;;;;;;;;;29.57;40.30;100000.39;107598;1251;97819;-69
2023/07/25 08:00:09;;;;;;;;;;;;;;;29.68;40.71;100002.35;107720;1253;97809;-67
2023/07/25 08:02:43;;;;;;;;;;;;;;;29.85;40.07;99994.67;106846;1251;956607;-68
2023/07/25 08:05:13;;;;;;;;;;;;;;;29.99;40.49;99987.27;107626;1251;109276;-69
2023/07/25 08:07:43;;;;;;;;;;;;;;;30.12;40.22;99991.85;107615;1254;107178;-71
2023/07/25 08:10:13;;;;;;;;;;;;;;;30.28;39.50;99998.08;107592;1251;97881;-68
2023/07/25 08:12:42;;;;;;;;;;;;;;;30.44;38.73;99982.16;107662;1251;97863;-69
2023/07/25 08:15:10;;;;;;;;;;;;;;;30.54;38.56;99973.39;107603;1251;111903;-68
2023/07/25 08:17:38;;;;;;;;;;;;;;;30.62;38.70;99987.21;107619;1254;109279;-69
2023/07/25 08:20:07;;;;;;;;;;;;;;;30.69;37.95;100003.75;107684;1252;108017;-68
2023/07/25 08:22:35;;;;;;;;;;;;;;;30.74;37.77;100015.36;107612;1253;97813;-68
2023/07/25 08:25:03;;;;;;;;;;;;;;;30.82;37.73;100014.41;107536;1251;97812;-66
2023/07/25 08:27:31;;;;;;;;;;;;;;;30.89;37.97;100003.08;107618;1251;111365;-67
2023/07/25 08:30:00;;;;;;;;;;;;;;;31.05;37.31;100003.43;107591;1251;108349;-69
2023/07/25 08:32:29;;;;;;;;;;;;;;;31.20;36.34;99993.20;107550;1254;108210;-69
2023/07/25 08:34:57;;;;;;;;;;;;;;;31.34;36.67;99994.27;107585;1251;97802;-68
2023/07/25 08:37:25;;;;;;;;;;;;;;;31.56;36.48;99995.30;107623;1252;97896;-70
2023/07/25 08:39:54;;;;;;;;;;;;;;;31.71;35.85;99982.08;107647;1252;112320;-67
2023/07/25 08:42:24;;;;;;;;;;;;;;;31.86;35.20;99994.19;107548;1254;110304;-70
2023/07/25 08:44:53;;;;;;;;;;;;;;;32.04;35.46;100005.80;107551;1251;107737;-74
2023/07/25 08:47:28;;;;;;;;;;;;;;;32.26;34.37;100018.35;107505;1251;97726;-70
2023/07/25 08:50:00;;;;;;;;;;;;;;;32.37;34.49;100038.13;107537;1251;97936;-70
2023/07/25 08:52:30;;;;;;;;;;;;;;;32.37;35.05;100040.02;107566;1250;112087;-70
2023/07/25 08:54:59;;;;;;;;;;;;;;;32.39;35.45;100042.95;107560;1250;109968;-69
2023/07/25 08:57:28;;;;;;;;;;;;;;;32.28;35.63;100043.61;107605;1251;108460;-73
2023/07/25 08:59:59;;;;;;;;;;;;;;;32.20;35.70;100041.85;107574;1251;98483;-70
2023/07/25 09:02:29;;;;;;;;;;;;;;;32.12;35.49;100039.17;107683;1251;97880;-69
2023/07/25 09:04:57;;;;;;;;;;;;;;;31.95;35.59;100030.88;107622;1254;112073;-68
2023/07/25 09:07:26;;;;;;;;;;;;;;;31.85;35.16;100020.34;107620;1251;109724;-68
2023/07/25 09:09:54;;;;;;;;;;;;;;;31.71;35.48;100012.51;107582;1251;108968;-69
2023/07/25 09:12:23;;;;;;;;;;;;;;;31.76;35.34;100011.05;107566;1250;97825;-69
2023/07/25 09:14:51;;;;;;;;;;;;;;;31.76;35.00;100017.27;107580;1251;97794;-69
2023/07/25 09:17:22;;;;;;;;;;;;;;;32.00;35.45;100022.24;107615;1251;111332;-69
2023/07/25 09:19:50;;;;;;;;;;;;;;;32.31;35.13;100022.79;107607;1251;109366;-69
2023/07/25 09:22:36;;;;;;;;;;;;;;;32.47;34.06;100021.49;107580;1251;107823;-68
2023/07/25 09:25:08;;;;;;;;;;;;;;;32.69;33.73;100019.45;107576;1251;98191;-70
2023/07/25 09:27:36;;;;;;;;;;;;;;;32.78;33.62;100016.73;107673;1250;98004;-69
2023/07/25 09:30:10;;;;;;;;;;;;;;;32.94;32.51;100012.52;107613;1251;111664;-70
2023/07/25 09:32:43;;;;;;;;;;;;;;;33.08;32.32;100014.62;107691;1254;108996;-67
2023/07/25 09:35:11;;;;;;;;;;;;;;;33.20;32.46;100011.63;107643;1251;108394;-70
2023/07/25 09:37:40;;;;;;;;;;;;;;;33.78;32.27;100007.66;107637;1251;97803;-70
2023/07/25 09:40:11;;;;;;;;;;;;;;;34.16;30.98;100004.39;107571;1251;97724;-69
2023/07/25 09:42:41;;;;;;;;;;;;;;;34.15;30.98;100004.52;107599;1252;112011;-71
2023/07/25 09:45:10;;;;;;;;;;;;;;;34.05;30.97;100009.39;107635;1251;108980;-69
2023/07/25 09:47:39;;;;;;;;;;;;;;;34.13;30.97;100016.85;107626;1251;108520;-69
2023/07/25 09:50:07;;;;;;;;;;;;;;;34.60;31.40;100008.36;107557;1251;97829;-69
2023/07/25 09:52:40;;;;;;;;;;;;;;;35.18;30.58;100007.31;107575;1250;97905;-69
2023/07/25 09:55:11;;;;;;;;;;;;;;;35.45;29.27;100002.61;107675;1251;112159;-67
2023/07/25 09:57:44;;;;;;;;;;;;;;;35.67;28.92;99996.89;107567;1250;109598;-74
2023/07/25 10:00:13;;;;;;;;;;;;;;;35.99;28.34;99995.02;107618;1251;108281;-68
2023/07/25 10:02:44;;;;;;;;;;;;;;;35.83;26.97;99998.88;107620;1256;97735;-71
2023/07/25 10:05:13;;;;;;;;;;;;;;;35.57;26.54;99987.73;107614;1251;97762;-70
2023/07/25 10:07:43;;;;;;;;;;;;;;;35.79;26.54;99983.44;107676;1251;112296;-70
2023/07/25 10:10:12;;;;;;;;;;;;;;;36.31;25.79;99977.33;107633;1251;109072;-69
2023/07/25 10:12:40;;;;;;;;;;;;;;;36.75;25.36;99968.33;107642;1251;109765;-69
2023/07/25 10:15:09;;;;;;;;;;;;;;;37.09;24.80;99957.38;107588;1251;97979;-69
2023/07/25 10:17:37;;;;;;;;;;;;;;;37.49;23.71;99949.42;107571;1251;97828;-71
2023/07/25 10:20:06;;;;;;;;;;;;;;;37.89;23.66;99941.71;107593;1251;112002;-69
2023/07/25 10:22:39;;;;;;;;;;;;;;;38.46;22.73;99946.65;107615;1251;108382;-73
2023/07/25 10:25:11;;;;;;;;;;;;;;;38.47;23.13;99942.94;107499;1251;108516;-69
2023/07/25 10:27:40;;;;;;;;;;;;;;;38.76;23.18;99953.44;107557;1250;97831;-71
2023/07/25 10:30:22;;;;;;;;;;;;;;;39.22;23.13;99956.23;107589;1251;97819;-69
2023/07/25 10:32:52;;;;;;;;;;;;;;;39.81;22.65;99957.80;107604;1250;111663;-68
2023/07/25 10:35:39;;;;;;;;;;;;;;;40.18;20.93;99966.75;107608;1251;109713;-68
2023/07/25 10:38:13;;;;;;;;;;;;;;;40.78;21.14;99962.09;107540;1254;107702;-69
2023/07/25 10:40:58;;;;;;;;;;;;;;;41.20;20.16;99954.41;107633;1253;97837;-69
2023/07/25 10:43:27;;;;;;;;;;;;;;;41.33;19.36;99951.00;107664;1254;97823;-70
2023/07/25 10:45:59;;;;;;;;;;;;;;;41.02;19.57;99937.40;107654;1253;111535;-70
2023/07/25 10:48:29;;;;;;;;;;;;;;;41.03;19.48;99933.17;107734;1251;108278;-69
2023/07/25 10:50:59;;;;;;;;;;;;;;;41.33;19.34;99923.03;107606;1254;106724;-70
2023/07/25 10:53:28;;;;;;;;;;;;;;;41.60;19.22;99931.27;107593;1250;97809;-70
2023/07/25 10:56:08;;;;;;;;;;;;;;;41.71;18.47;99927.33;107602;1251;97713;-69
2023/07/25 10:58:38;;;;;;;;;;;;;;;41.80;18.35;99918.80;107610;1250;111454;-68
2023/07/25 11:01:07;;;;;;;;;;;;;;;41.92;18.83;99910.19;107602;1250;109974;-70
2023/07/25 11:03:36;;;;;;;;;;;;;;;42.23;18.94;99911.56;107618;1251;108761;-69
2023/07/25 11:06:07;;;;;;;;;;;;;;;42.66;18.53;99904.08;107571;1253;97713;-70
2023/07/25 11:08:45;;;;;;;;;;;;;;;43.14;18.13;99903.13;107630;1251;97815;-72
2023/07/25 11:11:20;;;;;;;;;;;;;;;43.27;17.29;99900.93;107651;1256;111988;-75
2023/07/25 11:14:05;;;;;;;;;;;;;;;43.50;18.01;99899.15;107635;1251;109740;-75
2023/07/25 11:16:36;;;;;;;;;;;;;;;43.55;17.16;99901.41;107629;1254;107957;-69
2023/07/25 11:19:04;;;;;;;;;;;;;;;43.71;17.26;99903.27;107587;1251;97807;-69
2023/07/25 11:21:40;;;;;;;;;;;;;;;43.80;16.77;99892.79;107581;1251;97716;-70
2023/07/25 11:24:09;;;;;;;;;;;;;;;44.13;16.90;99891.58;107636;1250;111642;-68
2023/07/25 11:26:37;;;;;;;;;;;;;;;44.67;17.27;99879.61;107531;1251;109336;-68
2023/07/25 11:29:07;;;;;;;;;;;;;;;45.21;17.01;99877.46;107588;1254;108099;-69
2023/07/25 11:31:42;;;;;;;;;;;;;;;45.66;16.88;99876.20;107652;1251;97818;-70
2023/07/25 11:34:14;;;;;;;;;;;;;;;46.09;15.26;99874.77;107618;1251;97810;-69
2023/07/25 11:36:43;;;;;;;;;;;;;;;46.00;15.00;99874.58;107657;1251;111857;-69
2023/07/25 11:39:13;;;;;;;;;;;;;;;45.85;14.52;99865.98;107656;1250;108992;-69
2023/07/25 11:41:44;;;;;;;;;;;;;;;45.90;14.76;99859.91;107621;1251;107541;-70
2023/07/25 11:44:13;;;;;;;;;;;;;;;46.18;14.08;99856.69;107629;1253;97927;-69
2023/07/25 11:46:54;;;;;;;;;;;;;;;46.18;14.26;99844.10;107623;1251;97707;-69
2023/07/25 11:49:22;;;;;;;;;;;;;;;46.44;14.14;99838.30;107629;1254;112302;-70
2023/07/25 11:52:11;;;;;;;;;;;;;;;46.89;14.78;99832.14;107627;1251;109600;-71
2023/07/25 11:54:39;;;;;;;;;;;;;;;47.18;13.84;99833.25;107644;1254;108348;-69
2023/07/25 11:57:09;;;;;;;;;;;;;;;47.26;13.52;99831.67;107603;1251;97985;-69
2023/07/25 11:59:39;;;;;;;;;;;;;;;47.47;13.06;99833.09;107641;1254;97941;-69
2023/07/25 12:02:08;;;;;;;;;;;;;;;47.50;13.01;99826.16;107689;1251;110923;-68
2023/07/25 12:04:43;;;;;;;;;;;;;;;47.63;12.78;99817.73;107613;1254;108694;-69
2023/07/25 12:07:13;;;;;;;;;;;;;;;47.56;12.99;99815.66;107614;1256;107270;-69
2023/07/25 12:09:48;;;;;;;;;;;;;;;47.45;12.83;99813.65;107627;1255;97926;-69
2023/07/25 12:12:16;;;;;;;;;;;;;;;47.47;13.08;99808.11;107621;1251;98047;-69
2023/07/25 12:14:55;;;;;;;;;;;;;;;47.64;13.52;99793.80;107625;1251;112536;-69
2023/07/25 12:17:23;;;;;;;;;;;;;;;48.06;13.18;99801.15;107652;1253;110057;-70
2023/07/25 12:19:54;;;;;;;;;;;;;;;48.26;12.82;99802.80;107609;1254;108252;-69
2023/07/25 12:22:22;;;;;;;;;;;;;;;48.23;12.45;99803.48;107604;1251;97673;-70
2023/07/25 12:24:51;;;;;;;;;;;;;;;48.22;12.61;99806.84;107635;1251;97723;-72
2023/07/25 12:27:19;;;;;;;;;;;;;;;48.34;12.29;99816.20;107600;1251;111277;-67
2023/07/25 12:29:47;;;;;;;;;;;;;;;48.31;12.20;99814.27;107587;1254;109713;-69
2023/07/25 12:32:15;;;;;;;;;;;;;;;48.53;12.25;99811.74;107637;1251;107427;-69
2023/07/25 12:34:45;;;;;;;;;;;;;;;48.87;11.64;99804.98;107610;1251;97902;-68
2023/07/25 12:37:13;;;;;;;;;;;;;;;49.07;11.61;99798.76;107656;1254;97723;-70